createdAt,value
2019-02-28T00:00:08.204Z,6.15
2019-02-28T00:01:08.085Z,6.16
2019-02-28T00:02:08.091Z,6.17
2019-02-28T00:03:08.086Z,6.12
2019-02-28T00:04:07.966Z,6.10
2019-02-28T00:05:07.962Z,6.09
2019-02-28T00:06:11.744Z,6.05
2019-02-28T00:07:07.852Z,6.09
2019-02-28T00:08:07.843Z,6.05
2019-02-28T00:09:07.724Z,6.01
2019-02-28T00:10:07.734Z,6.06
2019-02-28T00:11:07.605Z,6.02
2019-02-28T00:12:13.186Z,6.01
2019-02-28T00:13:07.602Z,5.95
2019-02-28T00:14:07.484Z,5.97
2019-02-28T00:15:07.486Z,5.99
2019-02-28T00:16:07.366Z,5.99
2019-02-28T00:17:09.137Z,5.94
2019-02-28T00:18:07.368Z,5.90
2019-02-28T00:19:07.242Z,5.98
2019-02-28T00:20:07.244Z,6.07
2019-02-28T00:21:07.177Z,5.98
2019-02-28T00:22:07.120Z,5.94
2019-02-28T00:23:07.121Z,5.87
2019-02-28T00:24:07.007Z,5.94
2019-02-28T00:25:06.999Z,5.91
2019-02-28T00:26:11.384Z,5.87
2019-02-28T00:27:06.881Z,5.88
2019-02-28T00:28:06.883Z,5.90
2019-02-28T00:29:06.758Z,5.87
2019-02-28T00:30:06.937Z,5.83
2019-02-28T00:31:06.642Z,5.87
2019-02-28T00:32:06.638Z,5.81
2019-02-28T00:33:06.603Z,5.87
2019-02-28T00:34:06.522Z,5.84
2019-02-28T00:35:06.522Z,5.84
2019-02-28T00:36:06.398Z,5.84
2019-02-28T00:37:06.412Z,5.84
2019-02-28T00:38:06.278Z,5.77
2019-02-28T00:39:06.276Z,5.81
2019-02-28T00:40:07.456Z,5.84
2019-02-28T00:41:09.296Z,5.87
2019-02-28T00:42:06.157Z,5.88
2019-02-28T00:43:06.039Z,5.80
2019-02-28T00:44:06.046Z,5.87
2019-02-28T00:45:06.035Z,5.81
2019-02-28T00:46:07.260Z,5.87
2019-02-28T00:47:05.920Z,5.81
2019-02-28T00:48:05.797Z,5.80
2019-02-28T00:49:05.797Z,5.83
2019-02-28T00:50:05.797Z,5.88
2019-02-28T00:51:05.678Z,5.90
2019-02-28T00:52:05.772Z,5.80
2019-02-28T00:53:06.380Z,5.88
2019-02-28T00:54:08.643Z,5.95
2019-02-28T00:55:05.677Z,5.81
2019-02-28T00:56:05.441Z,5.81
2019-02-28T00:57:05.446Z,5.80
2019-02-28T00:58:05.318Z,5.81
2019-02-28T00:59:05.314Z,5.79
2019-02-28T01:00:06.263Z,5.80
2019-02-28T01:01:05.193Z,5.84
2019-02-28T01:02:05.192Z,5.84
2019-02-28T01:03:05.071Z,5.90
2019-02-28T01:04:05.073Z,5.81
2019-02-28T01:05:06.069Z,5.84
2019-02-28T01:06:09.698Z,5.83
2019-02-28T01:07:04.952Z,5.83
2019-02-28T01:08:04.831Z,5.84
2019-02-28T01:09:04.831Z,5.83
2019-02-28T01:10:05.253Z,5.80
2019-02-28T01:11:04.722Z,5.81
2019-02-28T01:12:04.719Z,5.77
2019-02-28T01:13:04.593Z,5.80
2019-02-28T01:14:04.592Z,5.79
2019-02-28T01:15:07.178Z,5.83
2019-02-28T01:16:04.468Z,5.79
2019-02-28T01:17:04.472Z,5.79
2019-02-28T01:18:04.352Z,5.79
2019-02-28T01:19:08.637Z,5.76
2019-02-28T01:20:04.311Z,5.79
2019-02-28T01:21:04.230Z,5.81
2019-02-28T01:22:04.228Z,5.81
2019-02-28T01:23:04.108Z,5.74
2019-02-28T01:24:04.114Z,5.76
2019-02-28T01:25:06.513Z,5.74
2019-02-28T01:26:03.987Z,5.79
2019-02-28T01:27:03.990Z,5.76
2019-02-28T01:28:03.871Z,5.70
2019-02-28T01:29:03.877Z,5.79
2019-02-28T01:30:06.600Z,5.67
2019-02-28T01:31:03.748Z,5.72
2019-02-28T01:32:03.746Z,5.76
2019-02-28T01:33:03.628Z,5.77
2019-02-28T01:34:03.625Z,5.73
2019-02-28T01:35:06.742Z,5.77
2019-02-28T01:36:03.504Z,5.73
2019-02-28T01:37:03.512Z,5.76
2019-02-28T01:38:03.386Z,5.72
2019-02-28T01:39:03.388Z,5.81
2019-02-28T01:40:04.430Z,5.74
2019-02-28T01:41:03.276Z,5.81
2019-02-28T01:42:03.263Z,5.80
2019-02-28T01:43:03.149Z,5.79
2019-02-28T01:44:03.145Z,5.83
2019-02-28T01:45:03.023Z,5.81
2019-02-28T01:46:03.025Z,5.90
2019-02-28T01:47:03.022Z,5.80
2019-02-28T01:48:02.904Z,5.81
2019-02-28T01:49:02.903Z,5.81
2019-02-28T01:50:02.782Z,5.80
2019-02-28T01:51:02.781Z,5.79
2019-02-28T01:52:02.784Z,5.91
2019-02-28T01:53:02.661Z,5.84
2019-02-28T01:54:02.661Z,5.88
2019-02-28T01:55:02.542Z,5.88
2019-02-28T01:56:03.246Z,5.87
2019-02-28T01:57:02.535Z,5.84
2019-02-28T01:58:02.421Z,6.01
2019-02-28T01:59:02.420Z,5.90
2019-02-28T02:00:02.309Z,5.91
2019-02-28T02:01:02.304Z,5.84
2019-02-28T02:02:05.706Z,5.90
2019-02-28T02:03:02.183Z,5.94
2019-02-28T02:04:02.185Z,5.87
2019-02-28T02:05:02.065Z,5.90
2019-02-28T02:06:02.063Z,5.87
2019-02-28T02:07:01.940Z,5.94
2019-02-28T02:08:06.515Z,5.87
2019-02-28T02:09:01.942Z,5.80
2019-02-28T02:10:01.824Z,5.90
2019-02-28T02:11:01.816Z,5.83
2019-02-28T02:12:01.696Z,5.88
2019-02-28T02:13:03.134Z,5.92
2019-02-28T02:14:01.697Z,5.84
2019-02-28T02:15:01.579Z,5.91
2019-02-28T02:16:01.581Z,5.91
2019-02-28T02:17:01.976Z,5.97
2019-02-28T02:18:01.455Z,6.01
2019-02-28T02:19:01.458Z,5.94
2019-02-28T02:20:01.344Z,5.99
2019-02-28T02:21:01.341Z,5.98
2019-02-28T02:22:01.213Z,6.07
2019-02-28T02:23:01.217Z,6.09
2019-02-28T02:24:01.215Z,6.05
2019-02-28T02:25:02.944Z,6.07
2019-02-28T02:26:01.097Z,6.05
2019-02-28T02:27:00.977Z,5.94
2019-02-28T02:28:00.975Z,5.94
2019-02-28T02:29:01.849Z,5.99
2019-02-28T02:30:00.855Z,6.02
2019-02-28T02:31:00.854Z,6.05
2019-02-28T02:32:02.361Z,6.02
2019-02-28T02:33:00.732Z,6.01
2019-02-28T02:34:00.748Z,6.09
2019-02-28T02:35:05.799Z,6.05
2019-02-28T02:36:00.613Z,5.94
2019-02-28T02:37:00.495Z,5.95
2019-02-28T02:38:03.455Z,5.98
2019-02-28T02:39:00.492Z,5.97
2019-02-28T02:40:00.637Z,5.94
2019-02-28T02:41:01.007Z,5.90
2019-02-28T02:42:00.254Z,5.87
2019-02-28T02:43:03.255Z,5.88
2019-02-28T02:44:00.253Z,5.88
2019-02-28T02:45:04.985Z,5.84
2019-02-28T02:46:00.132Z,5.91
2019-02-28T02:47:00.011Z,5.90
2019-02-28T02:48:00.029Z,5.79
2019-02-28T02:49:00.007Z,5.81
2019-02-28T02:49:59.894Z,5.77
2019-02-28T02:50:59.890Z,5.79
2019-02-28T02:51:59.769Z,5.77
2019-02-28T02:53:05.033Z,5.83
2019-02-28T02:53:59.649Z,5.81
2019-02-28T02:54:59.654Z,5.87
2019-02-28T02:56:03.583Z,5.95
2019-02-28T02:56:59.532Z,5.94
2019-02-28T02:57:59.540Z,5.88
2019-02-28T02:59:01.182Z,5.87
2019-02-28T02:59:59.413Z,5.88
2019-02-28T03:00:59.417Z,5.92
2019-02-28T03:01:59.286Z,5.84
2019-02-28T03:02:59.290Z,5.88
2019-02-28T03:03:59.166Z,5.79
2019-02-28T03:04:59.507Z,5.88
2019-02-28T03:05:59.168Z,5.83
2019-02-28T03:06:59.046Z,5.87
2019-02-28T03:07:59.884Z,5.81
2019-02-28T03:08:58.930Z,5.83
2019-02-28T03:09:58.933Z,5.81
2019-02-28T03:10:58.925Z,5.81
2019-02-28T03:11:58.918Z,5.88
2019-02-28T03:12:58.805Z,5.84
2019-02-28T03:13:58.684Z,5.84
2019-02-28T03:14:58.682Z,5.79
2019-02-28T03:15:59.501Z,5.74
2019-02-28T03:16:58.566Z,5.76
2019-02-28T03:17:58.569Z,5.77
2019-02-28T03:18:58.507Z,5.72
2019-02-28T03:19:58.446Z,5.73
2019-02-28T03:20:58.449Z,5.67
2019-02-28T03:21:58.337Z,5.69
2019-02-28T03:23:02.267Z,5.70
2019-02-28T03:23:58.205Z,5.70
2019-02-28T03:24:58.217Z,5.67
2019-02-28T03:26:05.292Z,5.67
2019-02-28T03:26:58.083Z,5.76
2019-02-28T03:27:58.084Z,5.74
2019-02-28T03:28:57.961Z,5.72
2019-02-28T03:29:57.965Z,5.70
2019-02-28T03:30:57.931Z,5.74
2019-02-28T03:31:59.551Z,5.79
2019-02-28T03:32:57.860Z,5.73
2019-02-28T03:34:10.023Z,5.79
2019-02-28T03:34:59.194Z,5.76
2019-02-28T03:35:57.604Z,5.77
2019-02-28T03:36:57.884Z,5.76
2019-02-28T03:37:57.597Z,5.77
2019-02-28T03:38:57.483Z,5.77
2019-02-28T03:40:02.460Z,5.74
2019-02-28T03:40:57.368Z,5.76
2019-02-28T03:41:57.363Z,5.72
2019-02-28T03:43:05.256Z,5.79
2019-02-28T03:43:57.238Z,5.79
2019-02-28T03:44:58.238Z,5.84
2019-02-28T03:45:57.121Z,5.83
2019-02-28T03:46:57.118Z,5.83
2019-02-28T03:47:58.973Z,5.83
2019-02-28T03:48:56.995Z,5.83
2019-02-28T03:49:56.995Z,5.83
2019-02-28T03:50:56.883Z,5.79
2019-02-28T03:51:56.873Z,5.84
2019-02-28T03:52:56.880Z,5.81
2019-02-28T03:53:56.910Z,5.81
2019-02-28T03:54:56.758Z,5.79
2019-02-28T03:55:56.634Z,5.81
2019-02-28T03:56:56.638Z,5.79
2019-02-28T03:58:03.905Z,5.83
2019-02-28T03:58:56.523Z,5.81
2019-02-28T03:59:57.071Z,5.84
2019-02-28T04:00:56.403Z,5.83
2019-02-28T04:01:56.442Z,5.84
2019-02-28T04:02:58.724Z,5.80
2019-02-28T04:03:56.273Z,5.87
2019-02-28T04:04:56.272Z,5.87
2019-02-28T04:06:03.402Z,5.83
2019-02-28T04:06:56.159Z,5.92
2019-02-28T04:07:56.159Z,5.87
2019-02-28T04:08:56.032Z,5.87
2019-02-28T04:09:56.039Z,5.94
2019-02-28T04:10:55.963Z,5.90
2019-02-28T04:11:55.919Z,5.92
2019-02-28T04:12:55.878Z,5.83
2019-02-28T04:13:56.049Z,5.88
2019-02-28T04:14:55.791Z,5.94
2019-02-28T04:16:07.746Z,5.97
2019-02-28T04:16:55.672Z,5.92
2019-02-28T04:17:55.552Z,6.07
2019-02-28T04:18:55.554Z,6.01
2019-02-28T04:20:00.094Z,5.91
2019-02-28T04:20:55.433Z,5.88
2019-02-28T04:21:55.432Z,5.88
2019-02-28T04:22:59.911Z,5.84
2019-02-28T04:23:55.311Z,5.90
2019-02-28T04:24:55.307Z,5.92
2019-02-28T04:25:56.838Z,5.88
2019-02-28T04:26:55.193Z,5.83
2019-02-28T04:27:55.075Z,5.81
2019-02-28T04:28:55.070Z,5.81
2019-02-28T04:29:55.067Z,5.83
2019-02-28T04:30:54.948Z,5.80
2019-02-28T04:31:54.947Z,5.79
2019-02-28T04:33:01.154Z,5.79
2019-02-28T04:33:54.829Z,5.74
2019-02-28T04:34:54.832Z,5.74
2019-02-28T04:35:56.759Z,5.70
2019-02-28T04:36:54.708Z,5.72
2019-02-28T04:37:54.595Z,5.76
2019-02-28T04:38:54.587Z,5.73
2019-02-28T04:39:54.585Z,5.73
2019-02-28T04:40:54.468Z,5.73
2019-02-28T04:41:54.465Z,5.64
2019-02-28T04:42:54.344Z,5.64
2019-02-28T04:43:54.345Z,5.65
2019-02-28T04:44:54.346Z,5.61
2019-02-28T04:45:54.229Z,5.79
2019-02-28T04:46:54.235Z,5.64
2019-02-28T04:47:54.106Z,5.70
2019-02-28T04:48:54.104Z,5.62
2019-02-28T04:49:57.000Z,5.61
2019-02-28T04:50:53.986Z,5.55
2019-02-28T04:51:53.984Z,5.67
2019-02-28T04:52:53.867Z,5.72
2019-02-28T04:53:53.890Z,5.58
2019-02-28T04:54:53.747Z,5.64
2019-02-28T04:55:53.742Z,5.64
2019-02-28T04:56:53.746Z,5.62
2019-02-28T04:57:53.632Z,5.65
2019-02-28T04:58:56.487Z,5.64
2019-02-28T04:59:53.501Z,5.58
2019-02-28T05:00:53.501Z,5.64
2019-02-28T05:01:53.500Z,5.58
2019-02-28T05:02:54.808Z,5.58
2019-02-28T05:03:53.380Z,5.65
2019-02-28T05:04:53.262Z,5.62
2019-02-28T05:05:53.260Z,5.62
2019-02-28T05:06:55.325Z,5.58
2019-02-28T05:07:53.139Z,5.56
2019-02-28T05:08:53.143Z,5.67
2019-02-28T05:09:53.022Z,5.61
2019-02-28T05:10:55.616Z,5.65
2019-02-28T05:11:53.019Z,5.67
2019-02-28T05:12:52.899Z,5.58
2019-02-28T05:13:52.902Z,5.64
2019-02-28T05:14:55.228Z,5.70
2019-02-28T05:15:52.779Z,5.65
2019-02-28T05:16:52.778Z,5.61
2019-02-28T05:17:53.101Z,5.64
2019-02-28T05:18:52.670Z,5.62
2019-02-28T05:19:52.541Z,5.61
2019-02-28T05:20:52.539Z,5.64
2019-02-28T05:21:53.509Z,5.62
2019-02-28T05:22:52.414Z,5.59
2019-02-28T05:23:52.417Z,5.54
2019-02-28T05:24:52.299Z,5.55
2019-02-28T05:25:52.673Z,5.55
2019-02-28T05:26:52.181Z,5.56
2019-02-28T05:27:52.176Z,5.58
2019-02-28T05:28:52.175Z,5.55
2019-02-28T05:29:52.055Z,5.58
2019-02-28T05:30:53.727Z,5.64
2019-02-28T05:31:51.936Z,5.58
2019-02-28T05:32:51.934Z,5.54
2019-02-28T05:33:51.934Z,5.61
2019-02-28T05:34:51.895Z,5.56
2019-02-28T05:35:51.819Z,5.61
2019-02-28T05:36:51.698Z,5.56
2019-02-28T05:37:51.703Z,5.55
2019-02-28T05:38:53.593Z,5.61
2019-02-28T05:39:51.576Z,5.58
2019-02-28T05:40:51.575Z,5.51
2019-02-28T05:41:51.686Z,5.58
2019-02-28T05:42:54.600Z,5.65
2019-02-28T05:43:51.454Z,5.51
2019-02-28T05:44:51.337Z,5.54
2019-02-28T05:45:51.332Z,5.56
2019-02-28T05:46:51.210Z,5.51
2019-02-28T05:47:51.212Z,5.43
2019-02-28T05:48:51.213Z,5.54
2019-02-28T05:49:51.092Z,5.49
2019-02-28T05:50:53.340Z,5.56
2019-02-28T05:51:50.975Z,5.55
2019-02-28T05:52:50.970Z,5.44
2019-02-28T05:53:50.933Z,5.47
2019-02-28T05:54:51.447Z,5.43
2019-02-28T05:55:50.859Z,5.43
2019-02-28T05:56:50.728Z,5.37
2019-02-28T05:57:50.732Z,5.44
2019-02-28T05:58:52.569Z,5.40
2019-02-28T05:59:50.688Z,5.38
2019-02-28T06:00:50.690Z,5.38
2019-02-28T06:01:50.586Z,5.41
2019-02-28T06:02:50.613Z,5.33
2019-02-28T06:03:50.367Z,5.40
2019-02-28T06:04:50.367Z,5.38
2019-02-28T06:05:50.378Z,5.31
2019-02-28T06:06:51.288Z,5.33
2019-02-28T06:07:50.250Z,5.26
2019-02-28T06:08:50.127Z,5.28
2019-02-28T06:09:50.126Z,5.26
2019-02-28T06:10:50.123Z,5.33
2019-02-28T06:11:50.004Z,5.23
2019-02-28T06:12:50.008Z,5.31
2019-02-28T06:13:52.855Z,5.22
2019-02-28T06:14:49.890Z,5.26
2019-02-28T06:15:49.889Z,5.28
2019-02-28T06:16:49.773Z,5.26
2019-02-28T06:17:54.673Z,5.28
2019-02-28T06:18:49.644Z,5.20
2019-02-28T06:19:49.648Z,5.33
2019-02-28T06:20:51.562Z,5.40
2019-02-28T06:21:49.530Z,5.37
2019-02-28T06:22:49.523Z,5.37
2019-02-28T06:23:49.407Z,5.41
2019-02-28T06:24:49.402Z,5.52
2019-02-28T06:25:49.366Z,5.46
2019-02-28T06:26:49.289Z,5.54
2019-02-28T06:27:50.615Z,5.56
2019-02-28T06:28:49.160Z,5.55
2019-02-28T06:29:49.163Z,5.62
2019-02-28T06:30:49.042Z,5.61
2019-02-28T06:31:49.457Z,5.72
2019-02-28T06:32:49.045Z,5.69
2019-02-28T06:33:48.920Z,5.76
2019-02-28T06:34:48.925Z,5.76
2019-02-28T06:35:49.599Z,5.74
2019-02-28T06:36:48.802Z,5.77
2019-02-28T06:37:48.801Z,5.84
2019-02-28T06:38:51.475Z,5.80
2019-02-28T06:39:48.680Z,5.87
2019-02-28T06:40:48.562Z,5.81
2019-02-28T06:41:48.560Z,5.83
2019-02-28T06:42:48.578Z,5.80
2019-02-28T06:43:50.241Z,5.81
2019-02-28T06:44:48.439Z,5.79
2019-02-28T06:45:48.319Z,5.87
2019-02-28T06:46:48.320Z,5.87
2019-02-28T06:47:49.815Z,5.92
2019-02-28T06:48:48.198Z,5.91
2019-02-28T06:49:48.197Z,5.90
2019-02-28T06:50:48.078Z,5.84
2019-02-28T06:51:48.365Z,5.92
2019-02-28T06:52:48.077Z,6.01
2019-02-28T06:53:47.961Z,6.01
2019-02-28T06:54:47.963Z,5.98
2019-02-28T06:55:47.841Z,6.05
2019-02-28T06:56:47.846Z,5.94
2019-02-28T06:57:47.799Z,6.02
2019-02-28T06:58:47.725Z,5.97
2019-02-28T06:59:47.714Z,6.06
2019-02-28T07:00:49.013Z,6.10
2019-02-28T07:01:47.601Z,6.07
2019-02-28T07:02:47.561Z,6.10
2019-02-28T07:03:53.554Z,6.15
2019-02-28T07:04:49.471Z,6.15
2019-02-28T07:05:47.353Z,6.22
2019-02-28T07:06:47.355Z,6.29
2019-02-28T07:07:49.038Z,6.25
2019-02-28T07:08:47.238Z,6.26
2019-02-28T07:09:47.245Z,6.29
2019-02-28T07:10:48.440Z,6.29
2019-02-28T07:11:47.112Z,6.34
2019-02-28T07:12:47.003Z,6.35
2019-02-28T07:13:46.995Z,6.41
2019-02-28T07:14:49.341Z,6.44
2019-02-28T07:15:46.870Z,6.47
2019-02-28T07:16:46.874Z,6.54
2019-02-28T07:17:47.612Z,6.49
2019-02-28T07:18:46.753Z,6.52
2019-02-28T07:19:46.752Z,6.57
2019-02-28T07:20:47.258Z,6.56
2019-02-28T07:21:46.629Z,6.68
2019-02-28T07:22:46.515Z,6.68
2019-02-28T07:23:46.509Z,6.77
2019-02-28T07:24:46.512Z,6.75
2019-02-28T07:25:47.379Z,6.82
2019-02-28T07:26:48.229Z,6.85
2019-02-28T07:27:46.271Z,6.86
2019-02-28T07:28:46.271Z,6.90
2019-02-28T07:29:46.269Z,6.96
2019-02-28T07:30:46.148Z,7.01
2019-02-28T07:31:46.149Z,7.00
2019-02-28T07:32:46.034Z,7.03
2019-02-28T07:33:46.026Z,7.11
2019-02-28T07:34:46.027Z,7.13
2019-02-28T07:35:45.910Z,7.08
2019-02-28T07:36:45.958Z,7.19
2019-02-28T07:37:45.792Z,7.25
2019-02-28T07:38:45.787Z,7.29
2019-02-28T07:39:45.786Z,7.31
2019-02-28T07:40:45.780Z,7.36
2019-02-28T07:41:45.667Z,7.37
2019-02-28T07:42:45.557Z,7.48
2019-02-28T07:43:46.130Z,7.48
2019-02-28T07:44:45.545Z,7.61
2019-02-28T07:45:45.426Z,7.59
2019-02-28T07:46:45.427Z,7.74
2019-02-28T07:47:45.335Z,7.70
2019-02-28T07:48:45.307Z,7.64
2019-02-28T07:49:45.306Z,7.77
2019-02-28T07:50:46.639Z,7.74
2019-02-28T07:51:45.182Z,7.85
2019-02-28T07:52:45.084Z,7.90
2019-02-28T07:53:45.071Z,7.96
2019-02-28T07:54:47.577Z,7.91
2019-02-28T07:55:44.944Z,8.03
2019-02-28T07:56:44.943Z,8.02
2019-02-28T07:57:44.827Z,8.18
2019-02-28T07:58:44.821Z,8.18
2019-02-28T07:59:44.821Z,8.16
2019-02-28T08:00:44.707Z,8.28
2019-02-28T08:01:44.703Z,8.28
2019-02-28T08:02:44.583Z,8.42
2019-02-28T08:03:44.915Z,8.42
2019-02-28T08:04:44.582Z,8.49
2019-02-28T08:05:44.466Z,8.59
2019-02-28T08:06:44.461Z,8.64
2019-02-28T08:07:50.305Z,8.63
2019-02-28T08:08:44.345Z,8.66
2019-02-28T08:09:44.340Z,8.71
2019-02-28T08:10:44.238Z,8.66
2019-02-28T08:11:44.221Z,8.71
2019-02-28T08:12:44.103Z,8.90
2019-02-28T08:13:44.112Z,8.92
2019-02-28T08:14:47.044Z,8.89
2019-02-28T08:15:43.983Z,9.03
2019-02-28T08:16:43.982Z,9.00
2019-02-28T08:17:44.694Z,9.15
2019-02-28T08:18:43.856Z,9.15
2019-02-28T08:19:43.861Z,9.27
2019-02-28T08:20:43.740Z,9.24
2019-02-28T08:21:46.935Z,9.26
2019-02-28T08:22:43.747Z,9.42
2019-02-28T08:23:43.619Z,9.39
2019-02-28T08:24:43.620Z,9.51
2019-02-28T08:25:43.556Z,9.40
2019-02-28T08:26:43.761Z,9.52
2019-02-28T08:27:43.496Z,9.54
2019-02-28T08:28:43.377Z,9.69
2019-02-28T08:29:45.650Z,9.66
2019-02-28T08:30:43.257Z,9.66
2019-02-28T08:31:43.258Z,9.80
2019-02-28T08:32:46.113Z,9.87
2019-02-28T08:33:43.137Z,9.84
2019-02-28T08:34:43.135Z,9.88
2019-02-28T08:35:43.017Z,9.94
2019-02-28T08:36:43.853Z,9.99
2019-02-28T08:37:43.013Z,9.94
2019-02-28T08:38:43.784Z,10.00
2019-02-28T08:39:42.906Z,10.15
2019-02-28T08:40:42.775Z,10.12
2019-02-28T08:41:42.772Z,10.17
2019-02-28T08:42:42.772Z,10.27
2019-02-28T08:43:44.681Z,10.21
2019-02-28T08:44:42.658Z,10.28
2019-02-28T08:45:42.653Z,10.36
2019-02-28T08:46:43.515Z,10.33
2019-02-28T08:47:42.544Z,10.38
2019-02-28T08:48:42.414Z,10.33
2019-02-28T08:49:45.374Z,10.33
2019-02-28T08:50:42.410Z,10.42
2019-02-28T08:51:43.228Z,10.45
2019-02-28T08:52:42.331Z,10.34
2019-02-28T08:53:42.170Z,10.43
2019-02-28T08:54:42.170Z,10.42
2019-02-28T08:55:44.303Z,10.48
2019-02-28T08:56:42.047Z,10.49
2019-02-28T08:57:42.050Z,10.57
2019-02-28T08:58:42.723Z,10.67
2019-02-28T08:59:41.928Z,10.62
2019-02-28T09:00:41.927Z,10.68
2019-02-28T09:01:44.197Z,10.76
2019-02-28T09:02:41.812Z,10.84
2019-02-28T09:03:41.811Z,10.83
2019-02-28T09:04:44.823Z,10.87
2019-02-28T09:05:41.689Z,10.94
2019-02-28T09:06:41.703Z,11.05
2019-02-28T09:07:41.568Z,11.05
2019-02-28T09:08:41.566Z,11.16
2019-02-28T09:09:41.447Z,11.23
2019-02-28T09:10:43.745Z,11.33
2019-02-28T09:11:41.328Z,11.33
2019-02-28T09:12:41.325Z,11.41
2019-02-28T09:13:42.994Z,11.41
2019-02-28T09:14:41.204Z,11.45
2019-02-28T09:15:41.206Z,11.38
2019-02-28T09:16:41.087Z,11.45
2019-02-28T09:17:41.088Z,11.49
2019-02-28T09:18:41.083Z,11.52
2019-02-28T09:19:40.963Z,11.63
2019-02-28T09:20:41.317Z,11.62
2019-02-28T09:21:41.289Z,11.65
2019-02-28T09:22:40.858Z,11.78
2019-02-28T09:23:40.842Z,11.77
2019-02-28T09:24:40.726Z,11.77
2019-02-28T09:25:40.725Z,11.89
2019-02-28T09:26:40.723Z,11.89
2019-02-28T09:27:40.607Z,12.02
2019-02-28T09:28:40.609Z,11.97
2019-02-28T09:29:40.564Z,11.99
2019-02-28T09:30:40.482Z,12.02
2019-02-28T09:31:40.492Z,12.12
2019-02-28T09:32:40.364Z,12.17
2019-02-28T09:33:40.362Z,12.21
2019-02-28T09:34:41.323Z,12.32
2019-02-28T09:35:45.028Z,12.26
2019-02-28T09:36:40.239Z,12.36
2019-02-28T09:37:40.123Z,12.37
2019-02-28T09:38:42.352Z,12.51
2019-02-28T09:39:40.126Z,12.61
2019-02-28T09:40:41.274Z,12.61
2019-02-28T09:41:41.174Z,12.62
2019-02-28T09:42:40.000Z,12.72
2019-02-28T09:43:39.879Z,12.81
2019-02-28T09:44:39.879Z,12.80
2019-02-28T09:45:40.883Z,12.81
2019-02-28T09:46:39.759Z,12.87
2019-02-28T09:47:39.756Z,12.91
2019-02-28T09:48:39.637Z,12.84
2019-02-28T09:49:39.637Z,12.87
2019-02-28T09:50:39.604Z,12.87
2019-02-28T09:51:39.517Z,12.93
2019-02-28T09:52:41.646Z,12.93
2019-02-28T09:53:39.399Z,12.98
2019-02-28T09:54:39.397Z,12.98
2019-02-28T09:55:39.929Z,13.03
2019-02-28T09:56:41.112Z,13.08
2019-02-28T09:57:39.278Z,13.08
2019-02-28T09:58:39.155Z,13.01
2019-02-28T09:59:39.160Z,13.16
2019-02-28T10:00:39.155Z,13.20
2019-02-28T10:01:39.035Z,13.17
2019-02-28T10:02:43.373Z,13.13
2019-02-28T10:03:39.034Z,13.23
2019-02-28T10:04:38.916Z,13.28
2019-02-28T10:05:42.556Z,13.24
2019-02-28T10:06:38.914Z,13.30
2019-02-28T10:07:38.794Z,13.30
2019-02-28T10:08:38.794Z,13.42
2019-02-28T10:09:40.460Z,13.36
2019-02-28T10:10:38.672Z,13.42
2019-02-28T10:11:40.470Z,13.42
2019-02-28T10:12:42.051Z,13.42
2019-02-28T10:13:38.573Z,13.42
2019-02-28T10:14:38.433Z,13.50
2019-02-28T10:15:38.625Z,13.54
2019-02-28T10:16:38.430Z,13.60
2019-02-28T10:17:38.329Z,13.70
2019-02-28T10:18:38.913Z,13.71
2019-02-28T10:19:45.525Z,13.70
2019-02-28T10:20:38.191Z,13.79
2019-02-28T10:21:39.621Z,13.78
2019-02-28T10:22:38.070Z,13.87
2019-02-28T10:23:38.067Z,13.86
2019-02-28T10:24:38.068Z,13.93
2019-02-28T10:25:43.397Z,13.97
2019-02-28T10:26:37.956Z,14.01
2019-02-28T10:27:37.947Z,14.23
2019-02-28T10:28:37.829Z,14.30
2019-02-28T10:29:38.416Z,14.31
2019-02-28T10:30:37.707Z,14.34
2019-02-28T10:31:38.469Z,14.48
2019-02-28T10:32:40.376Z,14.44
2019-02-28T10:33:37.585Z,14.52
2019-02-28T10:34:37.587Z,14.58
2019-02-28T10:35:37.716Z,14.68
2019-02-28T10:36:37.466Z,14.85
2019-02-28T10:37:37.465Z,14.82
2019-02-28T10:38:37.347Z,14.82
2019-02-28T10:39:40.246Z,14.85
2019-02-28T10:40:37.348Z,14.93
2019-02-28T10:41:37.224Z,14.99
2019-02-28T10:42:40.223Z,15.00
2019-02-28T10:43:37.227Z,15.04
2019-02-28T10:44:37.106Z,14.99
2019-02-28T10:45:40.885Z,15.00
2019-02-28T10:46:36.988Z,15.04
2019-02-28T10:47:36.985Z,15.04
2019-02-28T10:48:41.808Z,15.10
2019-02-28T10:49:36.862Z,15.14
2019-02-28T10:50:36.865Z,15.19
2019-02-28T10:51:36.862Z,15.29
2019-02-28T10:52:36.744Z,15.23
2019-02-28T10:53:39.334Z,15.33
2019-02-28T10:54:36.705Z,15.39
2019-02-28T10:55:36.622Z,15.43
2019-02-28T10:56:36.623Z,15.39
2019-02-28T10:57:37.195Z,15.44
2019-02-28T10:58:36.500Z,15.41
2019-02-28T10:59:36.504Z,15.47
2019-02-28T11:00:36.380Z,15.35
2019-02-28T11:01:41.610Z,15.44
2019-02-28T11:02:36.382Z,15.37
2019-02-28T11:03:36.262Z,15.30
2019-02-28T11:04:36.261Z,15.32
2019-02-28T11:05:36.141Z,15.43
2019-02-28T11:06:36.137Z,15.36
2019-02-28T11:07:37.802Z,15.39
2019-02-28T11:08:36.019Z,15.39
2019-02-28T11:09:36.021Z,15.36
2019-02-28T11:10:36.347Z,15.39
2019-02-28T11:11:35.897Z,15.36
2019-02-28T11:12:35.896Z,15.39
2019-02-28T11:13:35.778Z,15.43
2019-02-28T11:14:38.688Z,15.43
2019-02-28T11:15:35.782Z,15.33
2019-02-28T11:16:36.162Z,15.39
2019-02-28T11:17:35.659Z,15.33
2019-02-28T11:18:36.486Z,15.39
2019-02-28T11:19:35.535Z,15.26
2019-02-28T11:20:35.658Z,15.27
2019-02-28T11:21:35.528Z,15.36
2019-02-28T11:22:36.489Z,15.36
2019-02-28T11:23:35.418Z,15.41
2019-02-28T11:24:35.296Z,15.47
2019-02-28T11:25:35.683Z,15.50
2019-02-28T11:26:35.296Z,15.55
2019-02-28T11:27:35.176Z,15.62
2019-02-28T11:28:35.173Z,15.65
2019-02-28T11:29:36.313Z,15.65
2019-02-28T11:30:36.149Z,15.60
2019-02-28T11:31:35.056Z,15.69
2019-02-28T11:32:34.939Z,15.72
2019-02-28T11:33:36.486Z,15.73
2019-02-28T11:34:34.932Z,15.66
2019-02-28T11:35:34.811Z,15.69
2019-02-28T11:36:34.987Z,15.73
2019-02-28T11:37:34.814Z,15.67
2019-02-28T11:38:34.692Z,15.76
2019-02-28T11:39:34.694Z,15.63
2019-02-28T11:40:34.698Z,15.67
2019-02-28T11:41:34.571Z,15.80
2019-02-28T11:42:34.570Z,15.78
2019-02-28T11:43:37.368Z,15.81
2019-02-28T11:44:34.458Z,15.80
2019-02-28T11:45:34.449Z,15.81
2019-02-28T11:46:36.645Z,15.87
2019-02-28T11:47:34.331Z,15.85
2019-02-28T11:48:34.331Z,15.91
2019-02-28T11:49:34.228Z,15.94
2019-02-28T11:50:34.210Z,15.92
2019-02-28T11:51:34.182Z,16.02
2019-02-28T11:52:34.087Z,16.06
2019-02-28T11:53:39.331Z,16.05
2019-02-28T11:54:33.966Z,16.17
2019-02-28T11:55:33.985Z,16.03
2019-02-28T11:56:33.970Z,16.09
2019-02-28T11:57:33.845Z,16.08
2019-02-28T11:58:33.851Z,16.10
2019-02-28T11:59:33.846Z,16.21
2019-02-28T12:00:35.627Z,16.12
2019-02-28T12:01:33.725Z,16.28
2019-02-28T12:02:33.611Z,16.24
2019-02-28T12:03:35.514Z,16.24
2019-02-28T12:04:33.607Z,16.25
2019-02-28T12:05:33.493Z,16.32
2019-02-28T12:06:33.487Z,16.44
2019-02-28T12:07:34.981Z,16.51
2019-02-28T12:08:33.368Z,16.55
2019-02-28T12:09:33.368Z,16.65
2019-02-28T12:10:33.327Z,16.74
2019-02-28T12:11:33.560Z,16.89
2019-02-28T12:12:33.244Z,16.87
2019-02-28T12:13:33.127Z,16.94
2019-02-28T12:14:33.124Z,17.13
2019-02-28T12:15:33.127Z,17.16
2019-02-28T12:16:33.006Z,17.23
2019-02-28T12:17:33.004Z,17.32
2019-02-28T12:18:33.002Z,17.32
2019-02-28T12:19:32.883Z,17.32
2019-02-28T12:20:32.887Z,17.28
2019-02-28T12:21:37.765Z,17.30
2019-02-28T12:22:32.768Z,17.35
2019-02-28T12:23:32.767Z,17.39
2019-02-28T12:24:33.239Z,17.39
2019-02-28T12:25:32.660Z,17.41
2019-02-28T12:26:32.642Z,17.52
2019-02-28T12:27:32.523Z,17.59
2019-02-28T12:28:35.288Z,17.72
2019-02-28T12:29:32.522Z,17.63
2019-02-28T12:30:32.419Z,17.47
2019-02-28T12:31:35.770Z,17.57
2019-02-28T12:32:32.364Z,17.54
2019-02-28T12:33:32.281Z,17.44
2019-02-28T12:34:32.281Z,17.53
2019-02-28T12:35:37.516Z,17.54
2019-02-28T12:36:32.157Z,17.63
2019-02-28T12:37:32.157Z,17.66
2019-02-28T12:38:32.040Z,17.66
2019-02-28T12:39:33.358Z,17.73
2019-02-28T12:40:32.040Z,17.75
2019-02-28T12:41:31.917Z,17.80
2019-02-28T12:42:34.555Z,18.03
2019-02-28T12:43:31.879Z,18.18
2019-02-28T12:44:31.796Z,18.41
2019-02-28T12:45:31.799Z,18.48
2019-02-28T12:46:32.639Z,18.58
2019-02-28T12:47:31.681Z,18.63
2019-02-28T12:48:31.678Z,18.68
2019-02-28T12:49:31.555Z,18.78
2019-02-28T12:50:31.558Z,18.79
2019-02-28T12:51:31.560Z,18.71
2019-02-28T12:52:31.432Z,18.79
2019-02-28T12:53:32.556Z,18.71
2019-02-28T12:54:33.498Z,18.74
2019-02-28T12:55:31.322Z,18.73
2019-02-28T12:56:31.313Z,18.76
2019-02-28T12:57:31.285Z,18.79
2019-02-28T12:58:38.891Z,18.73
2019-02-28T12:59:31.200Z,18.76
2019-02-28T13:00:31.080Z,18.73
2019-02-28T13:01:33.092Z,18.78
2019-02-28T13:02:31.071Z,18.97
2019-02-28T13:03:30.953Z,18.88
2019-02-28T13:04:32.580Z,18.83
2019-02-28T13:05:30.952Z,18.68
2019-02-28T13:06:30.857Z,18.60
2019-02-28T13:07:33.853Z,18.48
2019-02-28T13:08:30.831Z,18.45